Terminal Aerodrome Forecast
Issued by NWS

Home | Current Version | Previous Version | Text Only | Print | Product List | Glossary On
Versions: 1 2 3 4 5 6 7 8 9 10 11 12 13 14 15
000
FTUS41 KPBZ 061702 AAA
TAFLBE
TAF AMD
KLBE 061702Z 0617/0712 VRB04KT P6SM -SHRA SCT030 BKN050
      TEMPO 0617/0619 4SM -TSRA BKN030CB
     FM062200 19006KT P6SM VCSH BKN030
     FM070100 21005KT P6SM BKN040=

USA.gov is the U.S. government's official web portal to all federal, state and local government web resources and services.